sensor_id;sensor_type;location;lat;lon;timestamp;pressure;altitude;pressure_sealevel;temperature;humidity
63582;BME280;49727;51.078;17.066;2023-07-30T00:07:46;99507.09;;;16.14;75.39
63582;BME280;49727;51.078;17.066;2023-07-30T00:22:46;99510.50;;;15.84;76.21
63582;BME280;49727;51.078;17.066;2023-07-30T00:37:46;99526.72;;;15.71;75.99
63582;BME280;49727;51.078;17.066;2023-07-30T00:52:48;99532.63;;;15.54;77.00
63582;BME280;49727;51.078;17.066;2023-07-30T01:07:48;99544.69;;;15.45;77.03
63582;BME280;49727;51.078;17.066;2023-07-30T01:22:49;99540.09;;;15.20;77.60
63582;BME280;49727;51.078;17.066;2023-07-30T01:37:50;99560.91;;;14.93;77.81
63582;BME280;49727;51.078;17.066;2023-07-30T01:52:51;99572.34;;;14.75;78.60
63582;BME280;49727;51.078;17.066;2023-07-30T02:07:52;99565.13;;;14.62;78.76
63582;BME280;49727;51.078;17.066;2023-07-30T02:22:52;99573.00;;;14.57;78.98
63582;BME280;49727;51.078;17.066;2023-07-30T02:37:52;99574.63;;;14.65;79.45
63582;BME280;49727;51.078;17.066;2023-07-30T02:52:53;99580.19;;;14.70;79.42
63582;BME280;49727;51.078;17.066;2023-07-30T03:07:53;99591.69;;;14.77;79.66
63582;BME280;49727;51.078;17.066;2023-07-30T03:22:53;99589.59;;;14.86;79.38
63582;BME280;49727;51.078;17.066;2023-07-30T03:37:53;99581.69;;;14.98;79.68
63582;BME280;49727;51.078;17.066;2023-07-30T03:52:54;99580.34;;;15.20;79.67
63582;BME280;49727;51.078;17.066;2023-07-30T04:07:54;99583.25;;;15.51;79.45
63582;BME280;49727;51.078;17.066;2023-07-30T04:22:54;99596.25;;;15.79;79.04
63582;BME280;49727;51.078;17.066;2023-07-30T04:37:55;99596.72;;;16.01;78.97
63582;BME280;49727;51.078;17.066;2023-07-30T04:52:55;99596.69;;;16.27;78.48
63582;BME280;49727;51.078;17.066;2023-07-30T05:07:55;99610.34;;;16.81;78.69
63582;BME280;49727;51.078;17.066;2023-07-30T05:22:56;99604.22;;;17.41;78.39
63582;BME280;49727;51.078;17.066;2023-07-30T05:37:56;99582.78;;;18.36;77.66
63582;BME280;49727;51.078;17.066;2023-07-30T05:52:56;99617.47;;;19.08;75.82
63582;BME280;49727;51.078;17.066;2023-07-30T06:07:57;99633.19;;;19.86;74.41
63582;BME280;49727;51.078;17.066;2023-07-30T06:22:57;99642.34;;;20.75;72.50
63582;BME280;49727;51.078;17.066;2023-07-30T06:37:57;99648.94;;;21.84;69.66
63582;BME280;49727;51.078;17.066;2023-07-30T06:52:58;99648.28;;;22.89;66.60
63582;BME280;49727;51.078;17.066;2023-07-30T07:07:58;99656.16;;;24.06;62.77
63582;BME280;49727;51.078;17.066;2023-07-30T07:22:58;99660.88;;;24.96;59.92
63582;BME280;49727;51.078;17.066;2023-07-30T07:37:59;99665.91;;;25.74;54.98
63582;BME280;49727;51.078;17.066;2023-07-30T07:52:59;99669.44;;;26.43;52.75
63582;BME280;49727;51.078;17.066;2023-07-30T08:07:59;99654.47;;;26.89;50.58
63582;BME280;49727;51.078;17.066;2023-07-30T08:22:59;99661.53;;;27.91;47.86
63582;BME280;49727;51.078;17.066;2023-07-30T08:38:00;99656.63;;;28.07;45.48
63582;BME280;49727;51.078;17.066;2023-07-30T08:53:02;99653.59;;;30.15;42.97
63582;BME280;49727;51.078;17.066;2023-07-30T09:08:03;99653.84;;;29.23;41.23
63582;BME280;49727;51.078;17.066;2023-07-30T09:23:04;99641.25;;;30.35;39.93
63582;BME280;49727;51.078;17.066;2023-07-30T09:38:05;99631.84;;;31.17;35.77
63582;BME280;49727;51.078;17.066;2023-07-30T09:53:05;99628.28;;;30.27;39.08
63582;BME280;49727;51.078;17.066;2023-07-30T10:08:09;99617.25;;;29.87;37.93
63582;BME280;49727;51.078;17.066;2023-07-30T10:23:10;99612.78;;;32.12;35.67
63582;BME280;49727;51.078;17.066;2023-07-30T10:38:29;99603.28;;;32.00;34.43
63582;BME280;49727;51.078;17.066;2023-07-30T10:53:30;99597.53;;;31.41;35.02
63582;BME280;49727;51.078;17.066;2023-07-30T11:08:39;99584.00;;;30.29;34.87
63582;BME280;49727;51.078;17.066;2023-07-30T11:23:41;99586.91;;;27.52;38.64
63582;BME280;49727;51.078;17.066;2023-07-30T11:38:42;99615.84;;;24.33;46.32
63582;BME280;49727;51.078;17.066;2023-07-30T11:53:49;99590.31;;;23.52;50.95
63582;BME280;49727;51.078;17.066;2023-07-30T12:08:50;99627.53;;;22.62;54.19
63582;BME280;49727;51.078;17.066;2023-07-30T12:23:51;99610.03;;;22.00;55.97
63582;BME280;49727;51.078;17.066;2023-07-30T12:38:52;99607.06;;;22.02;57.76
63582;BME280;49727;51.078;17.066;2023-07-30T12:53:53;99599.91;;;22.76;57.46
63582;BME280;49727;51.078;17.066;2023-07-30T13:08:54;99585.03;;;23.04;56.06
63582;BME280;49727;51.078;17.066;2023-07-30T13:23:54;99567.25;;;23.91;54.70
63582;BME280;49727;51.078;17.066;2023-07-30T13:38:54;99542.91;;;24.96;53.42
63582;BME280;49727;51.078;17.066;2023-07-30T13:53:55;99554.31;;;25.03;52.14
63582;BME280;49727;51.078;17.066;2023-07-30T14:08:55;99543.34;;;25.53;51.18
63582;BME280;49727;51.078;17.066;2023-07-30T14:23:55;99531.31;;;25.59;49.62
63582;BME280;49727;51.078;17.066;2023-07-30T14:38:55;99545.63;;;25.41;48.97
63582;BME280;49727;51.078;17.066;2023-07-30T14:53:56;99569.66;;;25.39;48.15
63582;BME280;49727;51.078;17.066;2023-07-30T15:08:57;99592.16;;;25.10;48.77
63582;BME280;49727;51.078;17.066;2023-07-30T15:23:57;99615.38;;;23.95;49.61
63582;BME280;49727;51.078;17.066;2023-07-30T15:39:00;99627.47;;;21.77;54.19
63582;BME280;49727;51.078;17.066;2023-07-30T15:54:02;99589.59;;;19.66;59.80
63582;BME280;49727;51.078;17.066;2023-07-30T16:09:02;99561.50;;;18.63;63.55
63582;BME280;49727;51.078;17.066;2023-07-30T16:24:02;99545.28;;;19.04;65.80
63582;BME280;49727;51.078;17.066;2023-07-30T16:39:03;99566.09;;;19.20;65.90
63582;BME280;49727;51.078;17.066;2023-07-30T16:54:04;99588.72;;;19.31;66.27
63582;BME280;49727;51.078;17.066;2023-07-30T17:09:04;99602.09;;;19.09;66.56
63582;BME280;49727;51.078;17.066;2023-07-30T17:24:05;99587.56;;;18.98;67.81
63582;BME280;49727;51.078;17.066;2023-07-30T17:39:05;99570.53;;;18.69;68.07
63582;BME280;49727;51.078;17.066;2023-07-30T17:54:05;99600.75;;;18.71;68.56
63582;BME280;49727;51.078;17.066;2023-07-30T18:09:05;99616.75;;;18.60;69.23
63582;BME280;49727;51.078;17.066;2023-07-30T18:24:06;99647.59;;;18.65;69.76
63582;BME280;49727;51.078;17.066;2023-07-30T18:39:08;99655.13;;;18.51;69.88
63582;BME280;49727;51.078;17.066;2023-07-30T18:54:09;99654.41;;;18.43;70.96
63582;BME280;49727;51.078;17.066;2023-07-30T19:09:10;99716.09;;;18.64;71.57
63582;BME280;49727;51.078;17.066;2023-07-30T19:24:10;99741.78;;;18.90;71.63
63582;BME280;49727;51.078;17.066;2023-07-30T19:39:10;99757.72;;;19.15;72.08
63582;BME280;49727;51.078;17.066;2023-07-30T19:54:11;99774.09;;;19.49;70.90
63582;BME280;49727;51.078;17.066;2023-07-30T20:09:12;99746.47;;;19.47;69.19
63582;BME280;49727;51.078;17.066;2023-07-30T20:24:13;99757.25;;;18.71;68.98
63582;BME280;49727;51.078;17.066;2023-07-30T20:39:13;99749.38;;;17.91;70.87
63582;BME280;49727;51.078;17.066;2023-07-30T20:54:13;99757.25;;;17.74;71.77
63582;BME280;49727;51.078;17.066;2023-07-30T21:09:14;99772.00;;;17.72;71.35
63582;BME280;49727;51.078;17.066;2023-07-30T21:24:15;99775.03;;;17.27;72.22
63582;BME280;49727;51.078;17.066;2023-07-30T21:39:15;99791.34;;;17.13;72.92
63582;BME280;49727;51.078;17.066;2023-07-30T21:54:15;99816.34;;;16.95;73.78
63582;BME280;49727;51.078;17.066;2023-07-30T22:09:16;99829.75;;;17.02;74.18
63582;BME280;49727;51.078;17.066;2023-07-30T22:24:16;99823.47;;;17.08;74.39
63582;BME280;49727;51.078;17.066;2023-07-30T22:39:16;99818.38;;;17.00;74.31
63582;BME280;49727;51.078;17.066;2023-07-30T22:54:17;99822.28;;;16.79;74.54
63582;BME280;49727;51.078;17.066;2023-07-30T23:09:20;99826.03;;;16.71;75.33
63582;BME280;49727;51.078;17.066;2023-07-30T23:24:21;99839.66;;;16.76;75.50
63582;BME280;49727;51.078;17.066;2023-07-30T23:39:21;99840.47;;;16.77;75.59
63582;BME280;49727;51.078;17.066;2023-07-30T23:54:21;99836.97;;;16.76;75.26
